createdAt,value
2022-09-02T00:00:28.155Z,68.02
2022-09-02T00:02:54.978Z,68.19
2022-09-02T00:05:21.882Z,68.23
2022-09-02T00:07:48.527Z,68.54
2022-09-02T00:10:15.296Z,68.53
2022-09-02T00:12:41.922Z,68.72
2022-09-02T00:15:09.169Z,68.77
2022-09-02T00:17:35.952Z,68.86
2022-09-02T00:20:02.839Z,68.96
2022-09-02T00:22:29.592Z,68.96
2022-09-02T00:24:56.231Z,69.00
2022-09-02T00:27:23.279Z,69.06
2022-09-02T00:29:50.059Z,69.19
2022-09-02T00:32:16.706Z,69.32
2022-09-02T00:34:43.992Z,69.45
2022-09-02T00:37:10.779Z,69.45
2022-09-02T00:39:37.510Z,69.40
2022-09-02T00:42:04.223Z,69.63
2022-09-02T00:44:30.940Z,69.75
2022-09-02T00:46:57.573Z,69.86
2022-09-02T00:49:32.198Z,69.93
2022-09-02T00:52:06.066Z,70.28
2022-09-02T00:54:35.001Z,70.30
2022-09-02T00:57:01.978Z,70.25
2022-09-02T00:59:58.455Z,70.30
2022-09-02T01:02:26.299Z,70.43
2022-09-02T01:04:56.897Z,70.44
2022-09-02T01:07:26.128Z,70.59
2022-09-02T01:09:55.502Z,70.51
2022-09-02T01:12:24.293Z,70.38
2022-09-02T01:14:51.035Z,70.48
2022-09-02T01:17:19.465Z,70.50
2022-09-02T01:19:49.287Z,70.33
2022-09-02T01:22:24.185Z,70.11
2022-09-02T01:24:51.130Z,70.23
2022-09-02T01:27:22.079Z,70.48
2022-09-02T01:29:56.111Z,70.37
2022-09-02T01:32:22.953Z,70.43
2022-09-02T01:34:49.686Z,70.46
2022-09-02T01:37:16.513Z,70.44
2022-09-02T01:40:41.222Z,70.59
2022-09-02T01:43:13.561Z,70.62
2022-09-02T01:45:41.615Z,70.71
2022-09-02T01:48:11.017Z,70.67
2022-09-02T01:50:42.515Z,70.75
2022-09-02T01:53:12.130Z,70.87
2022-09-02T01:55:39.010Z,70.83
2022-09-02T01:58:05.749Z,70.92
2022-09-02T02:00:32.495Z,70.88
2022-09-02T02:02:59.335Z,70.84
2022-09-02T02:05:26.003Z,70.94
2022-09-02T02:07:53.024Z,71.02
2022-09-02T02:10:20.672Z,71.11
2022-09-02T02:12:48.415Z,71.27
2022-09-02T02:15:18.034Z,71.30
2022-09-02T02:17:44.872Z,71.28
2022-09-02T02:20:11.888Z,71.26
2022-09-02T02:22:39.078Z,71.20
2022-09-02T02:25:06.572Z,71.35
2022-09-02T02:27:33.489Z,71.41
2022-09-02T02:30:05.309Z,71.43
2022-09-02T02:32:32.676Z,71.50
2022-09-02T02:34:59.847Z,71.43
2022-09-02T02:37:26.779Z,71.44
2022-09-02T02:39:53.812Z,71.37
2022-09-02T02:42:21.162Z,71.54
2022-09-02T02:44:48.009Z,71.36
2022-09-02T02:47:14.731Z,71.54
2022-09-02T02:49:43.110Z,71.53
2022-09-02T02:52:10.615Z,71.71
2022-09-02T02:54:37.793Z,71.74
2022-09-02T02:57:05.440Z,71.83
2022-09-02T02:59:32.779Z,71.81
2022-09-02T03:01:59.685Z,71.88
2022-09-02T03:04:26.621Z,71.93
2022-09-02T03:06:53.948Z,71.95
2022-09-02T03:09:21.146Z,71.92
2022-09-02T03:11:48.108Z,72.01
2022-09-02T03:14:15.265Z,71.99
2022-09-02T03:16:42.084Z,72.04
2022-09-02T03:19:08.827Z,71.97
2022-09-02T03:21:38.855Z,72.09
2022-09-02T03:24:07.604Z,72.32
2022-09-02T03:26:34.478Z,72.22
2022-09-02T03:29:01.198Z,72.43
2022-09-02T03:31:28.647Z,72.59
2022-09-02T03:33:55.769Z,72.50
2022-09-02T03:36:24.938Z,72.60
2022-09-02T03:38:51.993Z,72.80
2022-09-02T03:41:18.844Z,72.78
2022-09-02T03:43:46.380Z,72.94
2022-09-02T03:46:14.004Z,72.95
2022-09-02T03:48:41.236Z,73.18
2022-09-02T03:51:09.719Z,73.29
2022-09-02T03:53:36.646Z,73.41
2022-09-02T03:56:07.730Z,73.50
2022-09-02T03:58:35.268Z,73.59
2022-09-02T04:01:02.491Z,73.67
2022-09-02T04:03:30.189Z,73.77
2022-09-02T04:05:56.878Z,73.80
2022-09-02T04:08:24.751Z,73.79
2022-09-02T04:10:52.196Z,73.64
2022-09-02T04:13:18.962Z,73.47
2022-09-02T04:15:48.231Z,73.37
2022-09-02T04:18:16.679Z,73.12
2022-09-02T04:20:44.206Z,73.12
2022-09-02T04:23:11.528Z,73.07
2022-09-02T04:25:42.955Z,72.96
2022-09-02T04:28:10.269Z,72.63
2022-09-02T04:30:41.104Z,72.45
2022-09-02T04:33:07.814Z,71.64
2022-09-02T04:35:36.011Z,70.77
2022-09-02T04:38:03.081Z,70.03
2022-09-02T04:40:31.305Z,69.26
2022-09-02T04:42:58.714Z,68.52
2022-09-02T04:45:29.737Z,67.35
2022-09-02T04:47:57.251Z,66.03
2022-09-02T04:50:24.029Z,64.98
2022-09-02T04:52:58.087Z,63.72
2022-09-02T04:55:25.366Z,62.64
2022-09-02T04:57:52.331Z,61.67
2022-09-02T05:00:19.568Z,60.73
2022-09-02T05:02:47.931Z,60.03
2022-09-02T05:05:15.116Z,59.64
2022-09-02T05:07:41.859Z,59.43
2022-09-02T05:10:09.253Z,59.24
2022-09-02T05:12:40.557Z,59.29
2022-09-02T05:15:09.829Z,59.29
2022-09-02T05:17:36.794Z,59.52
2022-09-02T05:20:07.678Z,59.47
2022-09-02T05:22:35.987Z,59.34
2022-09-02T05:25:07.525Z,59.28
2022-09-02T05:27:35.141Z,58.86
2022-09-02T05:30:02.453Z,58.62
2022-09-02T05:32:32.395Z,58.26
2022-09-02T05:35:01.200Z,57.88
2022-09-02T05:37:28.065Z,57.47
2022-09-02T05:39:54.829Z,57.12
2022-09-02T05:42:21.737Z,57.04
2022-09-02T05:44:50.171Z,56.61
2022-09-02T05:47:19.205Z,56.64
2022-09-02T05:49:46.041Z,56.37
2022-09-02T05:52:14.887Z,55.40
2022-09-02T05:54:49.336Z,55.22
2022-09-02T05:57:19.311Z,55.33
2022-09-02T06:00:03.076Z,55.42
2022-09-02T06:02:42.406Z,55.25
2022-09-02T06:05:13.072Z,55.12
2022-09-02T06:07:43.557Z,54.90
2022-09-02T06:10:11.143Z,55.03
2022-09-02T06:12:42.439Z,54.92
2022-09-02T06:15:10.520Z,54.68
2022-09-02T06:17:38.931Z,54.18
2022-09-02T06:20:06.998Z,54.32
2022-09-02T06:22:34.294Z,54.31
2022-09-02T06:25:01.187Z,54.38
2022-09-02T06:27:29.445Z,54.12
2022-09-02T06:29:56.491Z,54.58
2022-09-02T06:32:24.361Z,54.60
2022-09-02T06:34:55.107Z,54.23
2022-09-02T06:37:21.986Z,54.46
2022-09-02T06:39:50.675Z,54.69
2022-09-02T06:42:21.536Z,54.40
2022-09-02T06:45:03.849Z,54.56
2022-09-02T06:47:31.823Z,54.74
2022-09-02T06:50:00.051Z,53.82
2022-09-02T06:52:26.815Z,53.27
2022-09-02T06:54:54.994Z,53.11
2022-09-02T06:57:21.846Z,52.12
2022-09-02T06:59:52.009Z,51.50
2022-09-02T07:02:20.521Z,51.51
2022-09-02T07:05:06.181Z,50.72
2022-09-02T07:07:35.215Z,50.04
2022-09-02T07:10:07.057Z,48.78
2022-09-02T07:12:35.902Z,47.50
2022-09-02T07:15:07.161Z,48.03
2022-09-02T07:17:37.287Z,48.20
2022-09-02T07:20:06.943Z,48.12
2022-09-02T07:22:39.775Z,47.74
2022-09-02T07:25:08.547Z,47.46
2022-09-02T07:27:35.723Z,46.69
2022-09-02T07:30:04.926Z,47.18
2022-09-02T07:32:31.824Z,47.34
2022-09-02T07:34:58.618Z,47.56
2022-09-02T07:37:25.378Z,47.00
2022-09-02T07:39:53.140Z,45.26
2022-09-02T07:42:20.435Z,45.66
2022-09-02T07:44:47.948Z,45.88
2022-09-02T07:47:15.199Z,45.39
2022-09-02T07:52:30.524Z,45.18
2022-09-02T07:54:57.328Z,45.59
2022-09-02T07:57:24.735Z,44.50
2022-09-02T07:59:52.111Z,44.29
2022-09-02T08:02:19.358Z,44.11
2022-09-02T08:04:46.720Z,44.79
2022-09-02T08:07:14.560Z,43.95
2022-09-02T08:09:41.352Z,43.44
2022-09-02T08:12:08.200Z,43.29
2022-09-02T08:14:35.067Z,43.11
2022-09-02T08:17:03.357Z,42.24
2022-09-02T08:19:30.312Z,41.97
2022-09-02T08:22:06.426Z,41.85
2022-09-02T08:24:33.240Z,42.03
2022-09-02T08:27:00.291Z,42.04
2022-09-02T08:29:27.005Z,42.20
2022-09-02T08:31:54.235Z,42.01
2022-09-02T08:34:21.254Z,41.79
2022-09-02T08:36:56.017Z,42.23
2022-09-02T08:42:16.330Z,42.27
2022-09-02T08:44:43.129Z,41.55
2022-09-02T08:47:15.577Z,41.57
2022-09-02T08:49:44.255Z,41.92
2022-09-02T08:52:17.169Z,41.57
2022-09-02T08:54:48.838Z,40.87
2022-09-02T08:57:15.586Z,40.88
2022-09-02T08:59:44.086Z,40.97
2022-09-02T09:02:47.388Z,41.29
2022-09-02T09:05:23.187Z,40.48
2022-09-02T09:07:50.015Z,40.67
2022-09-02T09:10:32.574Z,40.90
2022-09-02T09:13:32.233Z,40.40
2022-09-02T09:16:14.955Z,40.58
2022-09-02T09:18:45.778Z,40.53
2022-09-02T09:21:14.035Z,40.16
2022-09-02T09:23:41.096Z,40.19
2022-09-02T09:26:12.602Z,40.21
2022-09-02T09:28:48.089Z,41.29
2022-09-02T09:31:18.831Z,40.68
2022-09-02T09:33:58.831Z,40.62
2022-09-02T09:36:40.463Z,40.88
2022-09-02T09:39:22.171Z,40.21
2022-09-02T09:41:49.262Z,39.47
2022-09-02T09:44:49.206Z,40.05
2022-09-02T09:47:19.545Z,40.92
2022-09-02T09:49:50.126Z,40.45
2022-09-02T09:52:26.959Z,39.76
2022-09-02T09:55:15.462Z,38.80
2022-09-02T09:57:51.123Z,38.96
2022-09-02T10:00:27.464Z,39.05
2022-09-02T10:02:56.021Z,38.68
2022-09-02T10:05:25.258Z,38.79
2022-09-02T10:08:03.323Z,38.71
2022-09-02T10:10:31.221Z,38.81
2022-09-02T10:13:01.498Z,39.17
2022-09-02T10:16:03.456Z,38.61
2022-09-02T10:18:32.772Z,38.44
2022-09-02T10:21:16.546Z,38.59
2022-09-02T10:24:05.003Z,38.37
2022-09-02T10:26:42.307Z,38.10
2022-09-02T10:29:27.803Z,38.57
2022-09-02T10:31:57.544Z,39.33
2022-09-02T10:34:32.639Z,39.58
2022-09-02T10:37:11.746Z,38.98
2022-09-02T10:39:56.798Z,39.30
2022-09-02T10:43:00.940Z,39.45
2022-09-02T10:45:47.040Z,38.92
2022-09-02T10:48:30.787Z,38.63
2022-09-02T10:51:22.800Z,38.10
2022-09-02T10:54:34.338Z,38.32
2022-09-02T10:57:13.914Z,38.33
2022-09-02T10:59:44.459Z,38.45
2022-09-02T11:02:25.055Z,38.38
2022-09-02T11:04:56.659Z,38.11
2022-09-02T11:07:29.938Z,37.90
2022-09-02T11:10:00.339Z,37.86
2022-09-02T11:12:51.654Z,37.45
2022-09-02T11:15:32.014Z,36.72
2022-09-02T11:18:07.995Z,36.60
2022-09-02T11:20:40.583Z,36.66
2022-09-02T11:23:20.527Z,36.82
2022-09-02T11:25:55.654Z,36.77
2022-09-02T11:28:59.940Z,36.87
2022-09-02T11:31:54.258Z,37.02
2022-09-02T11:34:35.360Z,36.70
2022-09-02T11:37:06.957Z,36.66
2022-09-02T11:39:59.187Z,37.26
2022-09-02T11:42:41.239Z,36.67
2022-09-02T11:45:45.586Z,37.37
2022-09-02T11:48:29.519Z,37.56
2022-09-02T11:50:59.325Z,37.81
2022-09-02T11:53:35.877Z,38.08
2022-09-02T11:56:09.659Z,37.59
2022-09-02T11:58:43.752Z,36.60
2022-09-02T12:01:47.855Z,36.25
2022-09-02T12:07:09.101Z,36.25
2022-09-02T12:12:37.010Z,37.33
2022-09-02T12:15:04.966Z,37.34
2022-09-02T12:17:37.215Z,37.05
2022-09-02T12:20:09.234Z,36.72
2022-09-02T12:22:40.485Z,35.99
2022-09-02T12:25:26.948Z,36.07
2022-09-02T12:28:24.993Z,35.16
2022-09-02T12:31:10.434Z,35.15
2022-09-02T12:33:38.223Z,35.80
2022-09-02T12:36:05.982Z,35.45
2022-09-02T12:38:36.725Z,35.86
2022-09-02T12:41:13.474Z,34.97
2022-09-02T12:43:47.650Z,35.57
2022-09-02T12:46:45.150Z,35.84
2022-09-02T12:49:41.258Z,35.48
2022-09-02T12:52:12.540Z,34.82
2022-09-02T12:54:39.243Z,35.02
2022-09-02T12:57:06.504Z,35.12
2022-09-02T12:59:34.585Z,34.98
2022-09-02T13:02:31.726Z,34.94
2022-09-02T13:05:04.558Z,34.49
2022-09-02T13:07:49.600Z,34.35
2022-09-02T13:10:39.140Z,34.08
2022-09-02T13:13:11.847Z,34.93
2022-09-02T13:16:18.620Z,35.40
2022-09-02T13:19:07.247Z,35.61
2022-09-02T13:21:44.138Z,34.60
2022-09-02T13:24:19.060Z,34.80
2022-09-02T13:27:15.935Z,34.91
2022-09-02T13:30:22.080Z,34.52
2022-09-02T13:33:02.618Z,34.22
2022-09-02T13:35:29.522Z,34.12
2022-09-02T13:38:00.515Z,34.42
2022-09-02T13:40:34.894Z,33.87
2022-09-02T13:43:03.376Z,34.40
2022-09-02T13:45:32.889Z,34.42
2022-09-02T13:48:01.001Z,34.43
2022-09-02T13:50:29.881Z,34.61
2022-09-02T13:57:55.910Z,35.02
2022-09-02T14:00:33.827Z,34.83
2022-09-02T14:03:06.042Z,34.44
2022-09-02T14:05:35.653Z,35.31
2022-09-02T14:08:04.116Z,35.04
2022-09-02T14:10:31.732Z,34.75
2022-09-02T14:12:58.569Z,35.28
2022-09-02T14:15:30.129Z,35.82
2022-09-02T14:18:26.377Z,35.93
2022-09-02T14:20:58.310Z,36.32
2022-09-02T14:23:25.804Z,36.45
2022-09-02T14:25:56.725Z,36.65
2022-09-02T14:28:27.683Z,36.83
2022-09-02T14:31:00.084Z,36.95
2022-09-02T14:33:36.165Z,37.04
2022-09-02T14:36:04.561Z,37.32
2022-09-02T14:38:47.851Z,37.20
2022-09-02T14:41:17.625Z,37.42
2022-09-02T14:43:49.357Z,37.26
2022-09-02T14:46:21.083Z,37.56
2022-09-02T14:48:54.841Z,37.34
2022-09-02T14:51:21.895Z,37.70
2022-09-02T14:53:48.610Z,37.61
2022-09-02T14:56:15.343Z,37.45
2022-09-02T14:58:42.088Z,37.56
2022-09-02T15:01:08.877Z,37.85
2022-09-02T15:03:37.238Z,38.16
2022-09-02T15:06:03.962Z,37.93
2022-09-02T15:08:30.688Z,37.99
2022-09-02T15:10:58.913Z,38.16
2022-09-02T15:13:30.256Z,38.69
2022-09-02T15:15:57.297Z,38.67
2022-09-02T15:18:24.331Z,39.05
2022-09-02T15:20:51.659Z,39.06
2022-09-02T15:23:18.506Z,39.29
2022-09-02T15:25:45.256Z,39.41
2022-09-02T15:28:13.327Z,39.27
2022-09-02T15:30:40.788Z,39.44
2022-09-02T15:33:08.119Z,39.74
2022-09-02T15:35:43.258Z,39.46
2022-09-02T15:38:10.036Z,39.48
2022-09-02T15:40:36.807Z,39.90
2022-09-02T15:43:03.531Z,40.37
2022-09-02T15:45:30.813Z,40.35
2022-09-02T15:47:58.691Z,40.27
2022-09-02T15:50:26.278Z,39.98
2022-09-02T15:52:56.001Z,40.30
2022-09-02T15:55:29.260Z,40.34
2022-09-02T15:57:56.794Z,40.34
2022-09-02T16:00:27.597Z,40.24
2022-09-02T16:02:54.742Z,40.18
2022-09-02T16:05:21.524Z,40.35
2022-09-02T16:07:48.615Z,40.44
2022-09-02T16:10:15.501Z,40.47
2022-09-02T16:12:42.225Z,40.41
2022-09-02T16:15:09.723Z,40.56
2022-09-02T16:17:36.617Z,40.58
2022-09-02T16:20:04.710Z,40.64
2022-09-02T16:22:31.518Z,40.75
2022-09-02T16:24:58.301Z,41.02
2022-09-02T16:27:43.539Z,41.50
2022-09-02T16:30:10.757Z,41.76
2022-09-02T16:32:38.014Z,43.02
2022-09-02T16:35:05.234Z,43.41
2022-09-02T16:37:32.051Z,43.84
2022-09-02T16:39:58.871Z,43.74
2022-09-02T16:42:26.012Z,43.51
2022-09-02T16:44:52.775Z,43.36
2022-09-02T16:47:19.557Z,43.18
2022-09-02T16:49:46.569Z,43.01
2022-09-02T16:52:13.549Z,44.13
2022-09-02T16:54:41.218Z,44.51
2022-09-02T16:57:09.068Z,43.45
2022-09-02T16:59:35.912Z,44.96
2022-09-02T17:02:02.702Z,45.63
2022-09-02T17:04:29.743Z,46.24
2022-09-02T17:06:56.849Z,46.15
2022-09-02T17:09:23.672Z,46.19
2022-09-02T17:11:50.377Z,45.57
2022-09-02T17:14:21.717Z,47.00
2022-09-02T17:16:49.622Z,47.73
2022-09-02T17:19:21.350Z,48.23
2022-09-02T17:21:52.430Z,48.71
2022-09-02T17:24:20.995Z,49.29
2022-09-02T17:26:50.607Z,49.13
2022-09-02T17:29:46.827Z,47.80
2022-09-02T17:32:06.913Z,46.94
2022-09-02T17:34:33.883Z,46.56
2022-09-02T17:37:00.606Z,46.78
2022-09-02T17:39:27.513Z,47.27
2022-09-02T17:41:54.365Z,47.13
2022-09-02T17:44:22.460Z,47.45
2022-09-02T17:46:49.378Z,47.70
2022-09-02T17:49:17.510Z,47.74
2022-09-02T17:51:44.953Z,47.12
2022-09-02T17:54:11.791Z,46.61
2022-09-02T17:56:57.391Z,46.18
2022-09-02T17:59:45.423Z,46.05
2022-09-02T18:02:15.165Z,45.75
2022-09-02T18:05:06.412Z,45.39
2022-09-02T18:07:40.635Z,45.43
2022-09-02T18:10:07.484Z,45.28
2022-09-02T18:12:36.284Z,45.10
2022-09-02T18:15:04.844Z,44.79
2022-09-02T18:17:35.359Z,44.66
2022-09-02T18:20:09.438Z,44.62
2022-09-02T18:22:47.151Z,44.67
2022-09-02T18:25:45.963Z,44.53
2022-09-02T18:28:16.714Z,44.40
2022-09-02T18:31:34.386Z,44.38
2022-09-02T18:34:30.213Z,44.31
2022-09-02T18:37:17.577Z,44.32
2022-09-02T18:40:11.879Z,44.47
2022-09-02T18:42:47.398Z,44.60
2022-09-02T18:45:54.635Z,44.53
2022-09-02T18:48:25.545Z,44.69
2022-09-02T18:51:16.170Z,44.75
2022-09-02T18:53:48.777Z,44.84
2022-09-02T18:56:15.646Z,44.97
2022-09-02T18:58:45.632Z,44.99
2022-09-02T19:01:25.441Z,44.79
2022-09-02T19:03:52.393Z,44.87
2022-09-02T19:06:21.251Z,44.89
2022-09-02T19:08:48.457Z,44.70
2022-09-02T19:11:16.583Z,44.76
2022-09-02T19:13:53.058Z,44.76
2022-09-02T19:16:27.274Z,44.63
2022-09-02T19:18:54.369Z,44.69
2022-09-02T19:21:30.678Z,44.76
2022-09-02T19:23:57.461Z,44.80
2022-09-02T19:26:25.799Z,44.75
2022-09-02T19:28:52.512Z,44.42
2022-09-02T19:31:22.014Z,44.35
2022-09-02T19:33:53.202Z,44.22
2022-09-02T19:36:21.203Z,44.16
2022-09-02T19:38:48.121Z,44.50
2022-09-02T19:41:14.876Z,44.57
2022-09-02T19:43:41.792Z,44.56
2022-09-02T19:46:27.740Z,44.50
2022-09-02T19:48:57.414Z,44.42
2022-09-02T19:51:27.163Z,44.48
2022-09-02T19:53:56.531Z,44.58
2022-09-02T19:56:23.398Z,44.59
2022-09-02T19:58:50.146Z,44.93
2022-09-02T20:01:17.019Z,44.92
2022-09-02T20:03:44.532Z,44.85
2022-09-02T20:06:11.322Z,44.77
2022-09-02T20:08:38.080Z,44.89
2022-09-02T20:11:05.430Z,44.88
2022-09-02T20:13:40.056Z,44.82
2022-09-02T20:16:16.610Z,45.01
2022-09-02T20:18:46.774Z,45.12
2022-09-02T20:21:18.856Z,45.15
2022-09-02T20:23:45.638Z,45.30
2022-09-02T20:26:31.576Z,45.29
2022-09-02T20:29:20.077Z,45.20
2022-09-02T20:31:52.820Z,45.33
2022-09-02T20:34:33.671Z,45.21
2022-09-02T20:37:07.245Z,45.02
2022-09-02T20:39:39.940Z,45.04
2022-09-02T20:42:27.890Z,45.20
2022-09-02T20:45:09.160Z,45.25
2022-09-02T20:47:54.551Z,45.29
2022-09-02T20:50:35.267Z,45.28
2022-09-02T20:53:20.308Z,45.39
2022-09-02T20:55:51.202Z,45.46
2022-09-02T20:58:22.346Z,45.39
2022-09-02T21:01:09.488Z,45.41
2022-09-02T21:04:12.801Z,45.78
2022-09-02T21:06:42.787Z,45.79
2022-09-02T21:09:12.530Z,45.89
2022-09-02T21:11:48.030Z,45.93
2022-09-02T21:14:24.303Z,46.19
2022-09-02T21:17:05.301Z,46.14
2022-09-02T21:19:41.704Z,46.29
2022-09-02T21:22:14.206Z,46.31
2022-09-02T21:24:55.494Z,46.42
2022-09-02T21:27:28.335Z,46.58
2022-09-02T21:30:08.666Z,46.88
2022-09-02T21:32:46.115Z,47.96
2022-09-02T21:35:29.920Z,47.35
2022-09-02T21:37:59.347Z,47.31
2022-09-02T21:40:31.795Z,47.40
2022-09-02T21:43:17.337Z,47.38
2022-09-02T21:46:09.032Z,47.39
2022-09-02T21:48:51.738Z,47.40
2022-09-02T21:51:29.678Z,47.59
2022-09-02T21:54:25.772Z,47.78
2022-09-02T21:57:06.907Z,47.59
2022-09-02T22:00:00.386Z,47.50
2022-09-02T22:02:50.190Z,47.47
2022-09-02T22:05:21.149Z,47.56
2022-09-02T22:07:50.774Z,47.69
2022-09-02T22:10:36.458Z,47.51
2022-09-02T22:13:03.592Z,47.78
2022-09-02T22:15:58.112Z,47.69
2022-09-02T22:18:40.832Z,48.06
2022-09-02T22:21:19.746Z,48.08
2022-09-02T22:23:46.633Z,48.24
2022-09-02T22:26:20.391Z,48.14
2022-09-02T22:28:50.510Z,48.20
2022-09-02T22:31:18.705Z,48.40
2022-09-02T22:33:51.399Z,48.64
2022-09-02T22:36:43.119Z,48.61
2022-09-02T22:39:12.640Z,48.71
2022-09-02T22:41:52.680Z,48.65
2022-09-02T22:45:02.942Z,48.54
2022-09-02T22:47:48.250Z,49.12
2022-09-02T22:50:35.564Z,49.33
2022-09-02T22:53:02.647Z,49.25
2022-09-02T22:55:39.755Z,49.50
2022-09-02T22:58:25.139Z,49.40
2022-09-02T23:01:03.597Z,49.60
2022-09-02T23:03:56.788Z,49.84
2022-09-02T23:06:24.155Z,49.54
2022-09-02T23:08:51.029Z,49.72
2022-09-02T23:11:39.917Z,49.61
2022-09-02T23:14:24.076Z,49.64
2022-09-02T23:17:20.349Z,49.38
2022-09-02T23:19:56.560Z,49.67
2022-09-02T23:22:25.070Z,49.80
2022-09-02T23:25:13.515Z,49.71
2022-09-02T23:27:44.394Z,49.71
2022-09-02T23:30:12.207Z,49.65
2022-09-02T23:33:03.694Z,49.73
2022-09-02T23:35:36.093Z,49.11
2022-09-02T23:38:06.339Z,48.88
2022-09-02T23:40:40.869Z,49.00
2022-09-02T23:43:08.018Z,48.92
2022-09-02T23:45:34.899Z,49.15
2022-09-02T23:48:26.712Z,49.18
2022-09-02T23:51:32.789Z,49.25
2022-09-02T23:54:24.224Z,49.26
2022-09-02T23:57:10.152Z,49.12
